Shinkomaru No.18 — JD3625 — position and weather

sailwx.info

Track history (hours):
 
Tides and Currents Weather Stations Pressure Air Temp Water Temp Dewpoint Dewpoint Depression Visibility Wind Speed Wind Dir Waves Ship Positions

Shinkomaru No.18

Last reported at 2017-Nov-20 00:29 UTC. Time now 2017-Nov-20 13:31 UTC.
Position N 35°22' E 139°53'.

Length 82 m.

Type: Cargo ship. MMSI: 431005083.

Date/timePositionNaut miles runAvg speedWind from/ knotsBaromVisibWave heightAir tempDewpointWater temp
2017-Nov-20 00:29N 35°22' E 139°53'0 0.6
2017-Nov-19 23:59N 35°22' E 139°52'2 4.8
2017-Nov-19 23:30N 35°23' E 139°50'2 3.1
2017-Nov-19 23:00N 35°25' E 139°49'0 0.0
2017-Nov-19 22:28N 35°25' E 139°49'0 0.0
2017-Nov-19 22:00N 35°25' E 139°49'0 0.1
2017-Nov-19 21:30N 35°25' E 139°49'0 0.0
2017-Nov-19 21:00N 35°25' E 139°49'0 0.0
2017-Nov-19 20:30N 35°25' E 139°49'0 0.0
2017-Nov-19 19:59N 35°25' E 139°49'0 0.0
2017-Nov-19 19:30N 35°25' E 139°49'0 0.1
2017-Nov-19 19:00N 35°25' E 139°49'0 0.0
2017-Nov-19 18:30N 35°25' E 139°49'0 0.0
2017-Nov-19 18:00N 35°25' E 139°49'0 0.0
2017-Nov-19 17:30N 35°25' E 139°49'0 0.0
2017-Nov-19 17:00N 35°25' E 139°49'0 0.0
2017-Nov-19 16:30N 35°25' E 139°49'0 0.0
2017-Nov-19 16:00N 35°25' E 139°49'0 0.0
2017-Nov-19 15:30N 35°25' E 139°49'0 0.0
2017-Nov-19 15:00N 35°25' E 139°49'0 0.0
2017-Nov-19 14:30N 35°25' E 139°49'0 0.0
2017-Nov-19 14:00N 35°25' E 139°49'0 0.0
2017-Nov-19 13:31N 35°25' E 139°49'0 0.0
2017-Nov-19 13:00N 35°25' E 139°49'0 0.0
2017-Nov-19 12:30N 35°25' E 139°49'0 0.0
2017-Nov-19 12:00N 35°25' E 139°49'0 0.0
2017-Nov-19 11:30N 35°25' E 139°49'0 0.1
2017-Nov-19 11:00N 35°25' E 139°49'0 0.0
2017-Nov-19 10:30N 35°25' E 139°49'0 0.0
2017-Nov-19 10:00N 35°25' E 139°49'0 0.0
2017-Nov-19 09:29N 35°25' E 139°49'0 0.0
2017-Nov-19 09:00N 35°25' E 139°49'0 0.0
2017-Nov-19 08:30N 35°25' E 139°49'0 0.0
2017-Nov-19 08:00N 35°25' E 139°49'0 0.0
2017-Nov-19 07:30N 35°25' E 139°49'0 0.0
2017-Nov-19 07:00N 35°25' E 139°49'0 0.0
2017-Nov-19 06:24N 35°25' E 139°49'0 0.1
2017-Nov-19 06:00N 35°25' E 139°49'0 0.0
2017-Nov-19 05:29N 35°25' E 139°49'4 8.0
2017-Nov-19 05:00N 35°28' E 139°50'5 9.5
2017-Nov-19 04:30N 35°30' E 139°56'4 2.4
2017-Nov-19 02:55N 35°28' E 140°00'0 0.0
2017-Nov-19 01:59N 35°28' E 140°00'0 0.0
2017-Nov-19 01:25N 35°28' E 140°00'0 0.0
2017-Nov-19 00:48N 35°28' E 140°00'0 0.0
2017-Nov-19 00:30N 35°28' E 140°00'0 0.0
2017-Nov-18 23:57N 35°28' E 140°00'0 0.0
2017-Nov-18 23:29N 35°28' E 140°00'2 2.3
2017-Nov-18 22:27N 35°29' E 139°57'3 7.2
2017-Nov-18 22:00N 35°29' E 139°54'4 8.5
2017-Nov-18 21:30N 35°26' E 139°50'4 8.7
2017-Nov-18 21:00N 35°22' E 139°52'0 0.2
2017-Nov-18 19:10N 35°22' E 139°52'0 0.0
2017-Nov-18 18:47N 35°22' E 139°52'0 0.0
2017-Nov-18 16:33N 35°22' E 139°52'0 0.0
2017-Nov-18 16:24N 35°22' E 139°52'0 0.0
2017-Nov-18 15:06N 35°22' E 139°52'0 0.0
2017-Nov-18 14:48N 35°22' E 139°52'0 0.0
2017-Nov-18 14:17N 35°22' E 139°52'0 0.0
2017-Nov-18 14:00N 35°22' E 139°52'0 0.0
2017-Nov-18 13:26N 35°22' E 139°52'0 0.0
2017-Nov-18 13:00N 35°22' E 139°52'0 0.0
2017-Nov-18 12:24N 35°22' E 139°52'0 0.0
2017-Nov-18 11:43N 35°22' E 139°52'0 0.0
2017-Nov-18 11:23N 35°22' E 139°52'0 0.0
2017-Nov-18 01:02N 35°22' E 139°52'0 0.6
2017-Nov-18 01:01N 35°22' E 139°52'3 5.5
2017-Nov-18 00:30N 35°23' E 139°49'1 1.3
2017-Nov-18 00:00N 35°23' E 139°49'0 0.1
2017-Nov-17 23:30N 35°23' E 139°48'0 0.0
2017-Nov-17 23:00N 35°23' E 139°48'0 0.0
2017-Nov-17 22:30N 35°23' E 139°48'0 0.0
2017-Nov-17 21:57N 35°23' E 139°48'0 0.0
2017-Nov-17 21:30N 35°23' E 139°48'2 3.4
2017-Nov-17 21:01N 35°23' E 139°46'510.2
2017-Nov-17 20:30N 35°18' E 139°44'510.8
2017-Nov-17 20:00N 35°14' E 139°47'611.4
2017-Nov-17 19:30N 35°08' E 139°46'612.2
2017-Nov-17 19:00N 35°02' E 139°43'611.5
2017-Nov-17 18:30N 34°58' E 139°37'239 5.2
2017-Nov-15 20:12N 34°12' E 134°53'312.2
2017-Nov-15 19:58N 34°12' E 134°56'612.3
2017-Nov-15 19:30N 34°14' E 135°02'2 4.6
2017-Nov-15 19:01N 34°15' E 135°05'0 0.0
2017-Nov-15 18:31N 34°15' E 135°05'0 0.0
2017-Nov-15 18:00N 34°15' E 135°05'0 0.1
2017-Nov-15 17:30N 34°15' E 135°05'0 0.0
2017-Nov-15 17:01N 34°15' E 135°05'0 0.0
2017-Nov-15 16:30N 34°15' E 135°05'0 0.0
2017-Nov-15 16:00N 34°15' E 135°05'0 0.0
2017-Nov-15 15:31N 34°15' E 135°05'0 0.0
2017-Nov-15 15:00N 34°15' E 135°05'0 0.0
2017-Nov-15 14:30N 34°15' E 135°05'0 0.0
2017-Nov-15 14:00N 34°15' E 135°05'0 0.0
2017-Nov-15 13:30N 34°15' E 135°05'0 0.0
2017-Nov-15 13:01N 34°15' E 135°05'0 0.0
2017-Nov-15 12:30N 34°15' E 135°05'0 0.0
2017-Nov-15 12:01N 34°15' E 135°05'0 0.0
2017-Nov-15 11:31N 34°15' E 135°05'0 0.1
2017-Nov-15 11:01N 34°15' E 135°05'0 0.1
2017-Nov-15 10:30N 34°15' E 135°05'0 0.0
2017-Nov-15 10:00N 34°15' E 135°05'0 0.0
2017-Nov-15 09:31N 34°15' E 135°05'0 0.0
2017-Nov-15 09:00N 34°15' E 135°05'0 0.0
2017-Nov-15 08:31N 34°15' E 135°05'0 0.0
2017-Nov-15 08:00N 34°15' E 135°05'0 0.0
2017-Nov-15 07:30N 34°15' E 135°05'0 0.0
2017-Nov-15 07:00N 34°15' E 135°05'0 0.0
2017-Nov-15 06:30N 34°15' E 135°05'3 5.0
2017-Nov-15 06:00N 34°14' E 135°08'0 0.2
2017-Nov-15 05:30N 34°14' E 135°08'0 0.0
2017-Nov-15 05:01N 34°14' E 135°08'0 0.0
2017-Nov-15 04:31N 34°14' E 135°08'0 0.0
2017-Nov-15 04:01N 34°14' E 135°08'0 0.0
2017-Nov-15 03:30N 34°14' E 135°08'0 0.0
2017-Nov-15 03:00N 34°14' E 135°08'0 0.0
2017-Nov-15 02:31N 34°14' E 135°08'0 0.0
2017-Nov-15 02:01N 34°14' E 135°08'0 0.0
2017-Nov-15 01:30N 34°14' E 135°08'0 0.0
2017-Nov-15 01:01N 34°14' E 135°08'0 0.0
2017-Nov-15 00:30N 34°14' E 135°08'0 0.0
2017-Nov-15 00:00N 34°14' E 135°08'0 0.0
2017-Nov-14 23:31N 34°14' E 135°08'0 0.0
2017-Nov-14 23:01N 34°14' E 135°08'0 0.0
2017-Nov-14 22:30N 34°14' E 135°08'0 0.0
2017-Nov-14 22:01N 34°14' E 135°08'0 0.0
2017-Nov-14 21:30N 34°14' E 135°08'0 0.0
2017-Nov-14 21:01N 34°14' E 135°08'0 0.0
2017-Nov-14 20:30N 34°14' E 135°08'0 0.0
2017-Nov-14 20:00N 34°14' E 135°08'0 0.0
2017-Nov-14 19:30N 34°14' E 135°08'0 0.0
2017-Nov-14 19:01N 34°14' E 135°08'0 0.0
2017-Nov-14 18:31N 34°14' E 135°08'0 0.0
2017-Nov-14 18:01N 34°14' E 135°08'0 0.0
2017-Nov-14 17:31N 34°14' E 135°08'0 0.0
2017-Nov-14 17:01N 34°14' E 135°08'0 0.0
2017-Nov-14 16:30N 34°14' E 135°08'0 0.0
2017-Nov-14 16:01N 34°14' E 135°08'0 0.0
2017-Nov-14 15:30N 34°14' E 135°08'0 0.0
2017-Nov-14 15:00N 34°14' E 135°08'0 0.0
2017-Nov-14 14:30N 34°14' E 135°08'0 0.0
2017-Nov-14 14:01N 34°14' E 135°08'0 0.0
2017-Nov-14 13:31N 34°14' E 135°08'0 0.0
2017-Nov-14 13:01N 34°14' E 135°08'0 0.0
2017-Nov-14 12:31N 34°14' E 135°08'0 0.0
2017-Nov-14 12:01N 34°14' E 135°08'0 0.0
2017-Nov-14 11:30N 34°14' E 135°08'0 0.0
2017-Nov-14 11:01N 34°14' E 135°08'0 0.0
2017-Nov-14 10:31N 34°14' E 135°08'0 0.0
2017-Nov-14 10:00N 34°14' E 135°08'0 0.0
2017-Nov-14 09:31N 34°14' E 135°08'0 0.0
2017-Nov-14 09:00N 34°14' E 135°08'0 0.0
2017-Nov-14 08:31N 34°14' E 135°08'0 0.0
2017-Nov-14 08:01N 34°14' E 135°08'0 0.0
2017-Nov-14 07:30N 34°14' E 135°08'0 0.0
2017-Nov-14 07:00N 34°14' E 135°08'0 0.0
2017-Nov-14 06:31N 34°14' E 135°08'0 0.0
2017-Nov-14 06:00N 34°14' E 135°08'0 0.0
2017-Nov-14 05:30N 34°14' E 135°08'0 0.0
2017-Nov-14 05:01N 34°14' E 135°08'0 0.0
2017-Nov-14 04:30N 34°14' E 135°08'0 0.0
2017-Nov-14 04:01N 34°14' E 135°08'0 0.0
2017-Nov-14 03:31N 34°14' E 135°08'0 0.0
2017-Nov-14 03:01N 34°14' E 135°08'0 0.0
2017-Nov-14 02:30N 34°14' E 135°08'0 0.0
2017-Nov-14 02:01N 34°14' E 135°08'0 0.0
2017-Nov-14 01:30N 34°14' E 135°08'0 0.0
2017-Nov-14 01:00N 34°14' E 135°08'0 0.0
2017-Nov-14 00:30N 34°14' E 135°08'0 0.0
2017-Nov-14 00:01N 34°14' E 135°08'0 0.0
2017-Nov-13 23:30N 34°14' E 135°08'0 0.0
2017-Nov-13 23:00N 34°14' E 135°08'0 0.0
2017-Nov-13 22:31N 34°14' E 135°08'0 0.0
2017-Nov-13 22:01N 34°14' E 135°08'0 0.0
2017-Nov-13 02:00N 34°14' E 135°08'0 0.0
2017-Nov-13 01:30N 34°14' E 135°08'0 0.0
2017-Nov-13 01:00N 34°14' E 135°08'0 0.0
2017-Nov-13 00:31N 34°14' E 135°08'0 0.0
2017-Nov-13 00:01N 34°14' E 135°08'0 0.0
2017-Nov-12 23:30N 34°14' E 135°08'0 0.0
2017-Nov-12 23:00N 34°14' E 135°08'0 0.0
2017-Nov-12 22:30N 34°14' E 135°08'0 0.9
2017-Nov-12 22:01N 34°14' E 135°07'2 4.3
2017-Nov-12 21:31N 34°15' E 135°05'0 0.1
2017-Nov-12 21:00N 34°15' E 135°05'0 0.0
2017-Nov-12 20:30N 34°15' E 135°05'0 0.0
2017-Nov-12 20:00N 34°15' E 135°05'0 0.1
2017-Nov-12 19:31N 34°15' E 135°05'4 8.3
2017-Nov-12 19:00N 34°11' E 135°04'911.3
2017-Nov-12 18:12N 34°02' E 135°02'  
2017-Nov-10 09:32N 34°57' E 139°44'012.2
2017-Nov-10 09:30N 34°57' E 139°44'612.4
2017-Nov-10 09:00N 35°03' E 139°44'612.1
2017-Nov-10 08:30N 35°09' E 139°46'612.0
2017-Nov-10 08:00N 35°15' E 139°46'611.8
2017-Nov-10 07:30N 35°20' E 139°42'510.6
2017-Nov-10 07:00N 35°25' E 139°44'611.0
2017-Nov-10 06:30N 35°23' E 139°51'2 0.8
2017-Nov-10 04:14N 35°22' E 139°52'0 0.0
2017-Nov-10 04:00N 35°22' E 139°52'0 0.0
2017-Nov-10 03:30N 35°22' E 139°52'0 0.0
2017-Nov-10 02:54N 35°22' E 139°52'0 0.0
2017-Nov-10 02:26N 35°22' E 139°52'0 0.0
2017-Nov-10 02:00N 35°22' E 139°52'0 0.0
2017-Nov-10 01:30N 35°22' E 139°52'0 0.0
2017-Nov-10 01:00N 35°22' E 139°52'5 9.3
2017-Nov-10 00:30N 35°23' E 139°47'  
Track history (hours):
 
Tides and Currents Weather Stations Pressure Air Temp Water Temp Dewpoint Dewpoint Depression Visibility Wind Speed Wind Dir Waves Ship Positions

Shinkomaru No.18

Last reported at 2017-Nov-20 00:29 UTC. Time now 2017-Nov-20 13:31 UTC.
Position N 35°22' E 139°53'.

Length 82 m.

Type: Cargo ship. MMSI: 431005083.

Date/timePositionNaut miles runAvg speedWind from/ knotsBaromVisibWave heightAir tempDewpointWater temp
2017-Nov-20 00:29N 35°22' E 139°53'0 0.6
2017-Nov-19 23:59N 35°22' E 139°52'2 4.8
2017-Nov-19 23:30N 35°23' E 139°50'2 3.1
2017-Nov-19 23:00N 35°25' E 139°49'0 0.0
2017-Nov-19 22:28N 35°25' E 139°49'0 0.0
2017-Nov-19 22:00N 35°25' E 139°49'0 0.1
2017-Nov-19 21:30N 35°25' E 139°49'0 0.0
2017-Nov-19 21:00N 35°25' E 139°49'0 0.0
2017-Nov-19 20:30N 35°25' E 139°49'0 0.0
2017-Nov-19 19:59N 35°25' E 139°49'0 0.0
2017-Nov-19 19:30N 35°25' E 139°49'0 0.1
2017-Nov-19 19:00N 35°25' E 139°49'0 0.0
2017-Nov-19 18:30N 35°25' E 139°49'0 0.0
2017-Nov-19 18:00N 35°25' E 139°49'0 0.0
2017-Nov-19 17:30N 35°25' E 139°49'0 0.0
2017-Nov-19 17:00N 35°25' E 139°49'0 0.0
2017-Nov-19 16:30N 35°25' E 139°49'0 0.0
2017-Nov-19 16:00N 35°25' E 139°49'0 0.0
2017-Nov-19 15:30N 35°25' E 139°49'0 0.0
2017-Nov-19 15:00N 35°25' E 139°49'0 0.0
2017-Nov-19 14:30N 35°25' E 139°49'0 0.0
2017-Nov-19 14:00N 35°25' E 139°49'0 0.0
2017-Nov-19 13:31N 35°25' E 139°49'0 0.0
2017-Nov-19 13:00N 35°25' E 139°49'0 0.0
2017-Nov-19 12:30N 35°25' E 139°49'0 0.0
2017-Nov-19 12:00N 35°25' E 139°49'0 0.0
2017-Nov-19 11:30N 35°25' E 139°49'0 0.1
2017-Nov-19 11:00N 35°25' E 139°49'0 0.0
2017-Nov-19 10:30N 35°25' E 139°49'0 0.0
2017-Nov-19 10:00N 35°25' E 139°49'0 0.0
2017-Nov-19 09:29N 35°25' E 139°49'0 0.0
2017-Nov-19 09:00N 35°25' E 139°49'0 0.0
2017-Nov-19 08:30N 35°25' E 139°49'0 0.0
2017-Nov-19 08:00N 35°25' E 139°49'0 0.0
2017-Nov-19 07:30N 35°25' E 139°49'0 0.0
2017-Nov-19 07:00N 35°25' E 139°49'0 0.0
2017-Nov-19 06:24N 35°25' E 139°49'0 0.1
2017-Nov-19 06:00N 35°25' E 139°49'0 0.0
2017-Nov-19 05:29N 35°25' E 139°49'4 8.0
2017-Nov-19 05:00N 35°28' E 139°50'5 9.5
2017-Nov-19 04:30N 35°30' E 139°56'4 2.4
2017-Nov-19 02:55N 35°28' E 140°00'0 0.0
2017-Nov-19 01:59N 35°28' E 140°00'0 0.0
2017-Nov-19 01:25N 35°28' E 140°00'0 0.0
2017-Nov-19 00:48N 35°28' E 140°00'0 0.0
2017-Nov-19 00:30N 35°28' E 140°00'0 0.0
2017-Nov-18 23:57N 35°28' E 140°00'0 0.0
2017-Nov-18 23:29N 35°28' E 140°00'2 2.3
2017-Nov-18 22:27N 35°29' E 139°57'3 7.2
2017-Nov-18 22:00N 35°29' E 139°54'4 8.5
2017-Nov-18 21:30N 35°26' E 139°50'4 8.7
2017-Nov-18 21:00N 35°22' E 139°52'0 0.2
2017-Nov-18 19:10N 35°22' E 139°52'0 0.0
2017-Nov-18 18:47N 35°22' E 139°52'0 0.0
2017-Nov-18 16:33N 35°22' E 139°52'0 0.0
2017-Nov-18 16:24N 35°22' E 139°52'0 0.0
2017-Nov-18 15:06N 35°22' E 139°52'0 0.0
2017-Nov-18 14:48N 35°22' E 139°52'0 0.0
2017-Nov-18 14:17N 35°22' E 139°52'0 0.0
2017-Nov-18 14:00N 35°22' E 139°52'0 0.0
2017-Nov-18 13:26N 35°22' E 139°52'0 0.0
2017-Nov-18 13:00N 35°22' E 139°52'0 0.0
2017-Nov-18 12:24N 35°22' E 139°52'0 0.0
2017-Nov-18 11:43N 35°22' E 139°52'0 0.0
2017-Nov-18 11:23N 35°22' E 139°52'0 0.0
2017-Nov-18 01:02N 35°22' E 139°52'0 0.6
2017-Nov-18 01:01N 35°22' E 139°52'3 5.5
2017-Nov-18 00:30N 35°23' E 139°49'1 1.3
2017-Nov-18 00:00N 35°23' E 139°49'0 0.1
2017-Nov-17 23:30N 35°23' E 139°48'0 0.0
2017-Nov-17 23:00N 35°23' E 139°48'0 0.0
2017-Nov-17 22:30N 35°23' E 139°48'0 0.0
2017-Nov-17 21:57N 35°23' E 139°48'0 0.0
2017-Nov-17 21:30N 35°23' E 139°48'2 3.4
2017-Nov-17 21:01N 35°23' E 139°46'510.2
2017-Nov-17 20:30N 35°18' E 139°44'510.8
2017-Nov-17 20:00N 35°14' E 139°47'611.4
2017-Nov-17 19:30N 35°08' E 139°46'612.2
2017-Nov-17 19:00N 35°02' E 139°43'611.5
2017-Nov-17 18:30N 34°58' E 139°37'239 5.2
2017-Nov-15 20:12N 34°12' E 134°53'312.2
2017-Nov-15 19:58N 34°12' E 134°56'612.3
2017-Nov-15 19:30N 34°14' E 135°02'2 4.6
2017-Nov-15 19:01N 34°15' E 135°05'0 0.0
2017-Nov-15 18:31N 34°15' E 135°05'0 0.0
2017-Nov-15 18:00N 34°15' E 135°05'0 0.1
2017-Nov-15 17:30N 34°15' E 135°05'0 0.0
2017-Nov-15 17:01N 34°15' E 135°05'0 0.0
2017-Nov-15 16:30N 34°15' E 135°05'0 0.0
2017-Nov-15 16:00N 34°15' E 135°05'0 0.0
2017-Nov-15 15:31N 34°15' E 135°05'0 0.0
2017-Nov-15 15:00N 34°15' E 135°05'0 0.0
2017-Nov-15 14:30N 34°15' E 135°05'0 0.0
2017-Nov-15 14:00N 34°15' E 135°05'0 0.0
2017-Nov-15 13:30N 34°15' E 135°05'0 0.0
2017-Nov-15 13:01N 34°15' E 135°05'0 0.0
2017-Nov-15 12:30N 34°15' E 135°05'0 0.0
2017-Nov-15 12:01N 34°15' E 135°05'0 0.0
2017-Nov-15 11:31N 34°15' E 135°05'0 0.1
2017-Nov-15 11:01N 34°15' E 135°05'0 0.1
2017-Nov-15 10:30N 34°15' E 135°05'0 0.0
2017-Nov-15 10:00N 34°15' E 135°05'0 0.0
2017-Nov-15 09:31N 34°15' E 135°05'0 0.0
2017-Nov-15 09:00N 34°15' E 135°05'0 0.0
2017-Nov-15 08:31N 34°15' E 135°05'0 0.0
2017-Nov-15 08:00N 34°15' E 135°05'0 0.0
2017-Nov-15 07:30N 34°15' E 135°05'0 0.0
2017-Nov-15 07:00N 34°15' E 135°05'0 0.0
2017-Nov-15 06:30N 34°15' E 135°05'3 5.0
2017-Nov-15 06:00N 34°14' E 135°08'0 0.2
2017-Nov-15 05:30N 34°14' E 135°08'0 0.0
2017-Nov-15 05:01N 34°14' E 135°08'0 0.0
2017-Nov-15 04:31N 34°14' E 135°08'0 0.0
2017-Nov-15 04:01N 34°14' E 135°08'0 0.0
2017-Nov-15 03:30N 34°14' E 135°08'0 0.0
2017-Nov-15 03:00N 34°14' E 135°08'0 0.0
2017-Nov-15 02:31N 34°14' E 135°08'0 0.0
2017-Nov-15 02:01N 34°14' E 135°08'0 0.0
2017-Nov-15 01:30N 34°14' E 135°08'0 0.0
2017-Nov-15 01:01N 34°14' E 135°08'0 0.0
2017-Nov-15 00:30N 34°14' E 135°08'0 0.0
2017-Nov-15 00:00N 34°14' E 135°08'0 0.0
2017-Nov-14 23:31N 34°14' E 135°08'0 0.0
2017-Nov-14 23:01N 34°14' E 135°08'0 0.0
2017-Nov-14 22:30N 34°14' E 135°08'0 0.0
2017-Nov-14 22:01N 34°14' E 135°08'0 0.0
2017-Nov-14 21:30N 34°14' E 135°08'0 0.0
2017-Nov-14 21:01N 34°14' E 135°08'0 0.0
2017-Nov-14 20:30N 34°14' E 135°08'0 0.0
2017-Nov-14 20:00N 34°14' E 135°08'0 0.0
2017-Nov-14 19:30N 34°14' E 135°08'0 0.0
2017-Nov-14 19:01N 34°14' E 135°08'0 0.0
2017-Nov-14 18:31N 34°14' E 135°08'0 0.0
2017-Nov-14 18:01N 34°14' E 135°08'0 0.0
2017-Nov-14 17:31N 34°14' E 135°08'0 0.0
2017-Nov-14 17:01N 34°14' E 135°08'0 0.0
2017-Nov-14 16:30N 34°14' E 135°08'0 0.0
2017-Nov-14 16:01N 34°14' E 135°08'0 0.0
2017-Nov-14 15:30N 34°14' E 135°08'0 0.0
2017-Nov-14 15:00N 34°14' E 135°08'0 0.0
2017-Nov-14 14:30N 34°14' E 135°08'0 0.0
2017-Nov-14 14:01N 34°14' E 135°08'0 0.0
2017-Nov-14 13:31N 34°14' E 135°08'0 0.0
2017-Nov-14 13:01N 34°14' E 135°08'0 0.0
2017-Nov-14 12:31N 34°14' E 135°08'0 0.0
2017-Nov-14 12:01N 34°14' E 135°08'0 0.0
2017-Nov-14 11:30N 34°14' E 135°08'0 0.0
2017-Nov-14 11:01N 34°14' E 135°08'0 0.0
2017-Nov-14 10:31N 34°14' E 135°08'0 0.0
2017-Nov-14 10:00N 34°14' E 135°08'0 0.0
2017-Nov-14 09:31N 34°14' E 135°08'0 0.0
2017-Nov-14 09:00N 34°14' E 135°08'0 0.0
2017-Nov-14 08:31N 34°14' E 135°08'0 0.0
2017-Nov-14 08:01N 34°14' E 135°08'0 0.0
2017-Nov-14 07:30N 34°14' E 135°08'0 0.0
2017-Nov-14 07:00N 34°14' E 135°08'0 0.0
2017-Nov-14 06:31N 34°14' E 135°08'0 0.0
2017-Nov-14 06:00N 34°14' E 135°08'0 0.0
2017-Nov-14 05:30N 34°14' E 135°08'0 0.0
2017-Nov-14 05:01N 34°14' E 135°08'0 0.0
2017-Nov-14 04:30N 34°14' E 135°08'0 0.0
2017-Nov-14 04:01N 34°14' E 135°08'0 0.0
2017-Nov-14 03:31N 34°14' E 135°08'0 0.0
2017-Nov-14 03:01N 34°14' E 135°08'0 0.0
2017-Nov-14 02:30N 34°14' E 135°08'0 0.0
2017-Nov-14 02:01N 34°14' E 135°08'0 0.0
2017-Nov-14 01:30N 34°14' E 135°08'0 0.0
2017-Nov-14 01:00N 34°14' E 135°08'0 0.0
2017-Nov-14 00:30N 34°14' E 135°08'0 0.0
2017-Nov-14 00:01N 34°14' E 135°08'0 0.0
2017-Nov-13 23:30N 34°14' E 135°08'0 0.0
2017-Nov-13 23:00N 34°14' E 135°08'0 0.0
2017-Nov-13 22:31N 34°14' E 135°08'0 0.0
2017-Nov-13 22:01N 34°14' E 135°08'0 0.0
2017-Nov-13 02:00N 34°14' E 135°08'0 0.0
2017-Nov-13 01:30N 34°14' E 135°08'0 0.0
2017-Nov-13 01:00N 34°14' E 135°08'0 0.0
2017-Nov-13 00:31N 34°14' E 135°08'0 0.0
2017-Nov-13 00:01N 34°14' E 135°08'0 0.0
2017-Nov-12 23:30N 34°14' E 135°08'0 0.0
2017-Nov-12 23:00N 34°14' E 135°08'0 0.0
2017-Nov-12 22:30N 34°14' E 135°08'0 0.9
2017-Nov-12 22:01N 34°14' E 135°07'2 4.3
2017-Nov-12 21:31N 34°15' E 135°05'0 0.1
2017-Nov-12 21:00N 34°15' E 135°05'0 0.0
2017-Nov-12 20:30N 34°15' E 135°05'0 0.0
2017-Nov-12 20:00N 34°15' E 135°05'0 0.1
2017-Nov-12 19:31N 34°15' E 135°05'4 8.3
2017-Nov-12 19:00N 34°11' E 135°04'911.3
2017-Nov-12 18:12N 34°02' E 135°02'  
2017-Nov-10 09:32N 34°57' E 139°44'012.2
2017-Nov-10 09:30N 34°57' E 139°44'612.4
2017-Nov-10 09:00N 35°03' E 139°44'612.1
2017-Nov-10 08:30N 35°09' E 139°46'612.0
2017-Nov-10 08:00N 35°15' E 139°46'611.8
2017-Nov-10 07:30N 35°20' E 139°42'510.6
2017-Nov-10 07:00N 35°25' E 139°44'611.0
2017-Nov-10 06:30N 35°23' E 139°51'2 0.8
2017-Nov-10 04:14N 35°22' E 139°52'0 0.0
2017-Nov-10 04:00N 35°22' E 139°52'0 0.0
2017-Nov-10 03:30N 35°22' E 139°52'0 0.0
2017-Nov-10 02:54N 35°22' E 139°52'0 0.0
2017-Nov-10 02:26N 35°22' E 139°52'0 0.0
2017-Nov-10 02:00N 35°22' E 139°52'0 0.0
2017-Nov-10 01:30N 35°22' E 139°52'0 0.0
2017-Nov-10 01:00N 35°22' E 139°52'5 9.3
2017-Nov-10 00:30N 35°23' E 139°47'  

Dump ship's entire track history